sensor_id;sensor_type;location;lat;lon;timestamp;P1;durP1;ratioP1;P2;durP2;ratioP2
39896;SDS011;25567;48.276;14.242;2022-09-01T00:01:38;10.05;;;6.68;;
39896;SDS011;25567;48.276;14.242;2022-09-01T00:04:08;10.25;;;6.05;;
39896;SDS011;25567;48.276;14.242;2022-09-01T00:06:38;10.73;;;6.43;;
39896;SDS011;25567;48.276;14.242;2022-09-01T00:09:07;13.20;;;5.80;;
39896;SDS011;25567;48.276;14.242;2022-09-01T00:11:37;13.65;;;6.32;;
39896;SDS011;25567;48.276;14.242;2022-09-01T00:14:05;12.35;;;5.32;;
39896;SDS011;25567;48.276;14.242;2022-09-01T00:16:53;10.27;;;5.80;;
39896;SDS011;25567;48.276;14.242;2022-09-01T00:19:21;10.52;;;5.40;;
39896;SDS011;25567;48.276;14.242;2022-09-01T00:21:48;17.55;;;6.03;;
39896;SDS011;25567;48.276;14.242;2022-09-01T00:24:16;13.52;;;6.00;;
39896;SDS011;25567;48.276;14.242;2022-09-01T00:26:44;11.15;;;5.53;;
39896;SDS011;25567;48.276;14.242;2022-09-01T00:29:12;12.07;;;5.72;;
39896;SDS011;25567;48.276;14.242;2022-09-01T00:31:39;10.27;;;5.95;;
39896;SDS011;25567;48.276;14.242;2022-09-01T00:34:06;14.80;;;6.28;;
39896;SDS011;25567;48.276;14.242;2022-09-01T00:36:33;12.60;;;6.32;;
39896;SDS011;25567;48.276;14.242;2022-09-01T00:39:00;10.25;;;6.07;;
39896;SDS011;25567;48.276;14.242;2022-09-01T00:41:28;9.88;;;5.88;;
39896;SDS011;25567;48.276;14.242;2022-09-01T00:43:58;8.70;;;5.95;;
39896;SDS011;25567;48.276;14.242;2022-09-01T00:46:29;18.05;;;6.65;;
39896;SDS011;25567;48.276;14.242;2022-09-01T00:49:02;12.13;;;5.55;;
39896;SDS011;25567;48.276;14.242;2022-09-01T00:51:30;9.23;;;5.90;;
39896;SDS011;25567;48.276;14.242;2022-09-01T00:53:59;14.93;;;6.05;;
39896;SDS011;25567;48.276;14.242;2022-09-01T00:56:28;10.38;;;5.65;;
39896;SDS011;25567;48.276;14.242;2022-09-01T00:58:57;10.98;;;5.93;;
39896;SDS011;25567;48.276;14.242;2022-09-01T01:01:25;8.60;;;5.70;;
39896;SDS011;25567;48.276;14.242;2022-09-01T01:03:52;13.02;;;5.82;;
39896;SDS011;25567;48.276;14.242;2022-09-01T01:06:18;9.45;;;5.43;;
39896;SDS011;25567;48.276;14.242;2022-09-01T01:08:59;11.65;;;5.78;;
39896;SDS011;25567;48.276;14.242;2022-09-01T01:11:27;11.50;;;6.03;;
39896;SDS011;25567;48.276;14.242;2022-09-01T01:13:58;9.45;;;5.53;;
39896;SDS011;25567;48.276;14.242;2022-09-01T01:16:31;9.15;;;5.35;;
39896;SDS011;25567;48.276;14.242;2022-09-01T01:18:57;15.48;;;5.60;;
39896;SDS011;25567;48.276;14.242;2022-09-01T01:21:26;12.60;;;5.93;;
39896;SDS011;25567;48.276;14.242;2022-09-01T01:24:24;12.82;;;6.25;;
39896;SDS011;25567;48.276;14.242;2022-09-01T01:26:53;10.05;;;5.43;;
39896;SDS011;25567;48.276;14.242;2022-09-01T01:29:25;9.73;;;5.75;;
39896;SDS011;25567;48.276;14.242;2022-09-01T01:31:56;14.00;;;5.32;;
39896;SDS011;25567;48.276;14.242;2022-09-01T01:34:23;12.43;;;5.93;;
39896;SDS011;25567;48.276;14.242;2022-09-01T01:36:50;12.43;;;5.82;;
39896;SDS011;25567;48.276;14.242;2022-09-01T01:39:18;9.70;;;5.50;;
39896;SDS011;25567;48.276;14.242;2022-09-01T01:41:48;12.90;;;6.00;;
39896;SDS011;25567;48.276;14.242;2022-09-01T01:44:17;12.90;;;6.18;;
39896;SDS011;25567;48.276;14.242;2022-09-01T01:46:49;13.65;;;5.80;;
39896;SDS011;25567;48.276;14.242;2022-09-01T01:49:19;12.55;;;6.35;;
39896;SDS011;25567;48.276;14.242;2022-09-01T01:51:50;11.55;;;5.80;;
39896;SDS011;25567;48.276;14.242;2022-09-01T01:54:23;14.65;;;6.70;;
39896;SDS011;25567;48.276;14.242;2022-09-01T01:56:52;10.10;;;5.78;;
39896;SDS011;25567;48.276;14.242;2022-09-01T01:59:19;12.02;;;6.57;;
39896;SDS011;25567;48.276;14.242;2022-09-01T02:01:45;16.42;;;7.35;;
39896;SDS011;25567;48.276;14.242;2022-09-01T02:04:14;15.30;;;7.10;;
39896;SDS011;25567;48.276;14.242;2022-09-01T02:06:42;15.48;;;7.13;;
39896;SDS011;25567;48.276;14.242;2022-09-01T02:09:12;9.93;;;6.60;;
39896;SDS011;25567;48.276;14.242;2022-09-01T02:11:39;11.85;;;6.45;;
39896;SDS011;25567;48.276;14.242;2022-09-01T02:14:07;11.75;;;7.10;;
39896;SDS011;25567;48.276;14.242;2022-09-01T02:16:34;14.45;;;6.63;;
39896;SDS011;25567;48.276;14.242;2022-09-01T02:19:02;17.63;;;7.05;;
39896;SDS011;25567;48.276;14.242;2022-09-01T02:21:32;12.85;;;7.70;;
39896;SDS011;25567;48.276;14.242;2022-09-01T02:24:00;13.43;;;7.05;;
39896;SDS011;25567;48.276;14.242;2022-09-01T02:26:31;16.33;;;6.57;;
39896;SDS011;25567;48.276;14.242;2022-09-01T02:29:00;12.15;;;7.20;;
39896;SDS011;25567;48.276;14.242;2022-09-01T02:31:30;12.68;;;7.47;;
39896;SDS011;25567;48.276;14.242;2022-09-01T02:34:01;15.38;;;7.13;;
39896;SDS011;25567;48.276;14.242;2022-09-01T02:36:29;15.23;;;7.35;;
39896;SDS011;25567;48.276;14.242;2022-09-01T02:39:00;12.45;;;7.47;;
39896;SDS011;25567;48.276;14.242;2022-09-01T02:41:26;13.00;;;7.20;;
39896;SDS011;25567;48.276;14.242;2022-09-01T02:43:54;13.13;;;7.50;;
39896;SDS011;25567;48.276;14.242;2022-09-01T02:46:22;13.27;;;6.97;;
39896;SDS011;25567;48.276;14.242;2022-09-01T02:48:50;22.75;;;7.43;;
39896;SDS011;25567;48.276;14.242;2022-09-01T02:51:19;11.30;;;7.35;;
39896;SDS011;25567;48.276;14.242;2022-09-01T02:53:47;12.10;;;6.80;;
39896;SDS011;25567;48.276;14.242;2022-09-01T02:56:16;13.07;;;6.25;;
39896;SDS011;25567;48.276;14.242;2022-09-01T02:58:50;10.52;;;6.68;;
39896;SDS011;25567;48.276;14.242;2022-09-01T03:01:19;11.02;;;7.18;;
39896;SDS011;25567;48.276;14.242;2022-09-01T03:03:51;18.13;;;6.70;;
39896;SDS011;25567;48.276;14.242;2022-09-01T03:06:19;14.52;;;6.10;;
39896;SDS011;25567;48.276;14.242;2022-09-01T03:08:50;14.45;;;5.30;;
39896;SDS011;25567;48.276;14.242;2022-09-01T03:11:20;13.45;;;5.30;;
39896;SDS011;25567;48.276;14.242;2022-09-01T03:13:49;9.80;;;5.43;;
39896;SDS011;25567;48.276;14.242;2022-09-01T03:16:15;9.40;;;5.68;;
39896;SDS011;25567;48.276;14.242;2022-09-01T03:18:42;10.60;;;5.18;;
39896;SDS011;25567;48.276;14.242;2022-09-01T03:21:09;7.88;;;5.28;;
39896;SDS011;25567;48.276;14.242;2022-09-01T03:23:41;11.38;;;6.03;;
39896;SDS011;25567;48.276;14.242;2022-09-01T03:26:09;9.50;;;5.95;;
39896;SDS011;25567;48.276;14.242;2022-09-01T03:28:37;9.70;;;5.45;;
39896;SDS011;25567;48.276;14.242;2022-09-01T03:31:04;11.63;;;6.07;;
39896;SDS011;25567;48.276;14.242;2022-09-01T03:33:31;11.70;;;6.75;;
39896;SDS011;25567;48.276;14.242;2022-09-01T03:35:59;12.13;;;6.85;;
39896;SDS011;25567;48.276;14.242;2022-09-01T03:38:26;12.50;;;5.85;;
39896;SDS011;25567;48.276;14.242;2022-09-01T03:40:55;18.02;;;6.45;;
39896;SDS011;25567;48.276;14.242;2022-09-01T03:43:26;9.82;;;6.43;;
39896;SDS011;25567;48.276;14.242;2022-09-01T03:46:01;14.53;;;6.70;;
39896;SDS011;25567;48.276;14.242;2022-09-01T03:48:28;11.55;;;5.95;;
39896;SDS011;25567;48.276;14.242;2022-09-01T03:50:57;9.13;;;5.97;;
39896;SDS011;25567;48.276;14.242;2022-09-01T03:53:30;13.82;;;6.80;;
39896;SDS011;25567;48.276;14.242;2022-09-01T03:56:00;10.82;;;6.05;;
39896;SDS011;25567;48.276;14.242;2022-09-01T03:58:29;10.20;;;6.07;;
39896;SDS011;25567;48.276;14.242;2022-09-01T04:00:57;13.57;;;6.53;;
39896;SDS011;25567;48.276;14.242;2022-09-01T04:03:29;10.05;;;5.85;;
39896;SDS011;25567;48.276;14.242;2022-09-01T04:06:01;13.80;;;6.25;;
39896;SDS011;25567;48.276;14.242;2022-09-01T04:08:28;13.07;;;6.10;;
39896;SDS011;25567;48.276;14.242;2022-09-01T04:10:59;11.52;;;5.72;;
39896;SDS011;25567;48.276;14.242;2022-09-01T04:13:33;10.52;;;5.50;;
39896;SDS011;25567;48.276;14.242;2022-09-01T04:16:01;10.60;;;6.05;;
39896;SDS011;25567;48.276;14.242;2022-09-01T04:18:35;11.75;;;5.57;;
39896;SDS011;25567;48.276;14.242;2022-09-01T04:21:02;13.98;;;5.65;;
39896;SDS011;25567;48.276;14.242;2022-09-01T04:23:32;8.93;;;5.72;;
39896;SDS011;25567;48.276;14.242;2022-09-01T04:26:01;12.23;;;5.18;;
39896;SDS011;25567;48.276;14.242;2022-09-01T04:28:36;11.85;;;5.80;;
39896;SDS011;25567;48.276;14.242;2022-09-01T04:31:06;12.90;;;6.70;;
39896;SDS011;25567;48.276;14.242;2022-09-01T04:33:36;9.00;;;5.47;;
39896;SDS011;25567;48.276;14.242;2022-09-01T04:36:06;7.57;;;5.40;;
39896;SDS011;25567;48.276;14.242;2022-09-01T04:38:45;13.10;;;6.32;;
39896;SDS011;25567;48.276;14.242;2022-09-01T04:41:13;9.88;;;5.63;;
39896;SDS011;25567;48.276;14.242;2022-09-01T04:43:43;12.98;;;5.70;;
39896;SDS011;25567;48.276;14.242;2022-09-01T04:46:14;17.48;;;6.75;;
39896;SDS011;25567;48.276;14.242;2022-09-01T04:48:41;11.10;;;6.63;;
39896;SDS011;25567;48.276;14.242;2022-09-01T04:51:11;10.50;;;6.82;;
39896;SDS011;25567;48.276;14.242;2022-09-01T04:53:40;11.65;;;6.32;;
39896;SDS011;25567;48.276;14.242;2022-09-01T04:56:15;11.75;;;6.10;;
39896;SDS011;25567;48.276;14.242;2022-09-01T04:58:45;11.20;;;6.15;;
39896;SDS011;25567;48.276;14.242;2022-09-01T05:01:15;9.63;;;6.95;;
39896;SDS011;25567;48.276;14.242;2022-09-01T05:03:44;9.35;;;6.50;;
39896;SDS011;25567;48.276;14.242;2022-09-01T05:06:13;9.75;;;6.80;;
39896;SDS011;25567;48.276;14.242;2022-09-01T05:08:43;16.65;;;7.05;;
39896;SDS011;25567;48.276;14.242;2022-09-01T05:11:14;9.95;;;6.13;;
39896;SDS011;25567;48.276;14.242;2022-09-01T05:13:44;13.07;;;6.55;;
39896;SDS011;25567;48.276;14.242;2022-09-01T05:16:14;12.40;;;6.85;;
39896;SDS011;25567;48.276;14.242;2022-09-01T05:18:50;10.05;;;6.50;;
39896;SDS011;25567;48.276;14.242;2022-09-01T05:21:19;14.90;;;6.40;;
39896;SDS011;25567;48.276;14.242;2022-09-01T05:23:49;10.18;;;6.90;;
39896;SDS011;25567;48.276;14.242;2022-09-01T05:26:18;13.10;;;7.30;;
39896;SDS011;25567;48.276;14.242;2022-09-01T05:28:50;10.55;;;7.32;;
39896;SDS011;25567;48.276;14.242;2022-09-01T05:31:20;12.98;;;7.45;;
39896;SDS011;25567;48.276;14.242;2022-09-01T05:33:48;18.38;;;7.20;;
39896;SDS011;25567;48.276;14.242;2022-09-01T05:36:17;20.20;;;7.60;;
39896;SDS011;25567;48.276;14.242;2022-09-01T05:38:46;30.27;;;8.13;;
39896;SDS011;25567;48.276;14.242;2022-09-01T05:41:14;19.27;;;7.78;;
39896;SDS011;25567;48.276;14.242;2022-09-01T05:43:44;19.05;;;7.82;;
39896;SDS011;25567;48.276;14.242;2022-09-01T05:46:13;18.85;;;8.10;;
39896;SDS011;25567;48.276;14.242;2022-09-01T05:48:42;23.35;;;7.57;;
39896;SDS011;25567;48.276;14.242;2022-09-01T05:51:10;18.20;;;7.35;;
39896;SDS011;25567;48.276;14.242;2022-09-01T05:54:01;15.07;;;8.15;;
39896;SDS011;25567;48.276;14.242;2022-09-01T05:56:32;21.23;;;8.32;;
39896;SDS011;25567;48.276;14.242;2022-09-01T05:58:59;19.88;;;9.20;;
39896;SDS011;25567;48.276;14.242;2022-09-01T06:01:48;34.58;;;8.88;;
39896;SDS011;25567;48.276;14.242;2022-09-01T06:04:16;17.13;;;10.00;;
39896;SDS011;25567;48.276;14.242;2022-09-01T06:06:44;18.70;;;10.15;;
39896;SDS011;25567;48.276;14.242;2022-09-01T06:09:36;16.83;;;9.52;;
39896;SDS011;25567;48.276;14.242;2022-09-01T06:12:04;13.68;;;8.75;;
39896;SDS011;25567;48.276;14.242;2022-09-01T06:14:32;13.93;;;8.98;;
39896;SDS011;25567;48.276;14.242;2022-09-01T06:16:59;24.65;;;8.85;;
39896;SDS011;25567;48.276;14.242;2022-09-01T06:19:26;24.63;;;8.98;;
39896;SDS011;25567;48.276;14.242;2022-09-01T06:21:54;16.05;;;8.10;;
39896;SDS011;25567;48.276;14.242;2022-09-01T06:24:22;16.55;;;8.20;;
39896;SDS011;25567;48.276;14.242;2022-09-01T06:26:48;19.30;;;7.30;;
39896;SDS011;25567;48.276;14.242;2022-09-01T06:29:15;15.02;;;7.97;;
39896;SDS011;25567;48.276;14.242;2022-09-01T06:31:43;10.77;;;7.30;;
39896;SDS011;25567;48.276;14.242;2022-09-01T06:34:17;9.88;;;7.18;;
39896;SDS011;25567;48.276;14.242;2022-09-01T06:36:45;10.07;;;7.32;;
39896;SDS011;25567;48.276;14.242;2022-09-01T06:39:14;11.13;;;6.35;;
39896;SDS011;25567;48.276;14.242;2022-09-01T06:41:51;10.65;;;6.10;;
39896;SDS011;25567;48.276;14.242;2022-09-01T06:44:20;12.98;;;6.28;;
39896;SDS011;25567;48.276;14.242;2022-09-01T06:46:48;10.48;;;6.68;;
39896;SDS011;25567;48.276;14.242;2022-09-01T06:49:17;11.77;;;6.72;;
39896;SDS011;25567;48.276;14.242;2022-09-01T06:51:44;12.15;;;5.85;;
39896;SDS011;25567;48.276;14.242;2022-09-01T06:54:14;8.32;;;5.82;;
39896;SDS011;25567;48.276;14.242;2022-09-01T06:56:42;9.63;;;6.07;;
39896;SDS011;25567;48.276;14.242;2022-09-01T06:59:16;11.07;;;5.53;;
39896;SDS011;25567;48.276;14.242;2022-09-01T07:01:43;11.70;;;5.85;;
39896;SDS011;25567;48.276;14.242;2022-09-01T07:04:11;17.33;;;5.75;;
39896;SDS011;25567;48.276;14.242;2022-09-01T07:06:39;8.18;;;5.50;;
39896;SDS011;25567;48.276;14.242;2022-09-01T07:09:27;9.88;;;5.40;;
39896;SDS011;25567;48.276;14.242;2022-09-01T07:12:14;9.48;;;5.10;;
39896;SDS011;25567;48.276;14.242;2022-09-01T07:14:53;10.35;;;4.90;;
39896;SDS011;25567;48.276;14.242;2022-09-01T07:17:40;11.20;;;5.47;;
39896;SDS011;25567;48.276;14.242;2022-09-01T07:20:08;7.65;;;5.00;;
39896;SDS011;25567;48.276;14.242;2022-09-01T07:22:53;9.45;;;4.80;;
39896;SDS011;25567;48.276;14.242;2022-09-01T07:25:31;10.45;;;6.18;;
39896;SDS011;25567;48.276;14.242;2022-09-01T07:28:20;12.48;;;5.85;;
39896;SDS011;25567;48.276;14.242;2022-09-01T07:30:50;9.18;;;5.72;;
39896;SDS011;25567;48.276;14.242;2022-09-01T07:33:19;12.43;;;5.57;;
39896;SDS011;25567;48.276;14.242;2022-09-01T07:36:09;8.75;;;5.18;;
39896;SDS011;25567;48.276;14.242;2022-09-01T07:38:54;10.68;;;6.45;;
39896;SDS011;25567;48.276;14.242;2022-09-01T07:41:40;15.35;;;7.93;;
39896;SDS011;25567;48.276;14.242;2022-09-01T07:46:54;9.68;;;7.38;;
39896;SDS011;25567;48.276;14.242;2022-09-01T07:52:27;12.10;;;6.05;;
39896;SDS011;25567;48.276;14.242;2022-09-01T07:54:56;8.80;;;5.78;;
39896;SDS011;25567;48.276;14.242;2022-09-01T07:57:23;10.63;;;6.35;;
39896;SDS011;25567;48.276;14.242;2022-09-01T07:59:50;12.23;;;7.05;;
39896;SDS011;25567;48.276;14.242;2022-09-01T08:02:19;10.73;;;6.45;;
39896;SDS011;25567;48.276;14.242;2022-09-01T08:04:45;9.32;;;6.57;;
39896;SDS011;25567;48.276;14.242;2022-09-01T08:07:13;13.48;;;6.63;;
39896;SDS011;25567;48.276;14.242;2022-09-01T08:09:41;14.48;;;7.25;;
39896;SDS011;25567;48.276;14.242;2022-09-01T08:12:09;11.18;;;7.13;;
39896;SDS011;25567;48.276;14.242;2022-09-01T08:14:36;13.93;;;6.80;;
39896;SDS011;25567;48.276;14.242;2022-09-01T08:17:03;15.35;;;5.80;;
39896;SDS011;25567;48.276;14.242;2022-09-01T08:19:50;11.93;;;5.47;;
39896;SDS011;25567;48.276;14.242;2022-09-01T08:22:18;11.30;;;5.30;;
39896;SDS011;25567;48.276;14.242;2022-09-01T08:24:50;11.05;;;5.07;;
39896;SDS011;25567;48.276;14.242;2022-09-01T08:27:17;13.90;;;5.07;;
39896;SDS011;25567;48.276;14.242;2022-09-01T08:29:44;10.70;;;5.55;;
39896;SDS011;25567;48.276;14.242;2022-09-01T08:32:11;11.25;;;5.20;;
39896;SDS011;25567;48.276;14.242;2022-09-01T08:34:38;14.32;;;3.70;;
39896;SDS011;25567;48.276;14.242;2022-09-01T08:37:05;6.35;;;3.30;;
39896;SDS011;25567;48.276;14.242;2022-09-01T08:39:32;5.28;;;3.25;;
39896;SDS011;25567;48.276;14.242;2022-09-01T08:45:09;10.85;;;4.32;;
39896;SDS011;25567;48.276;14.242;2022-09-01T08:47:43;10.75;;;3.95;;
39896;SDS011;25567;48.276;14.242;2022-09-01T08:50:31;8.25;;;3.72;;
39896;SDS011;25567;48.276;14.242;2022-09-01T08:53:02;11.27;;;4.45;;
39896;SDS011;25567;48.276;14.242;2022-09-01T08:55:42;13.32;;;4.78;;
39896;SDS011;25567;48.276;14.242;2022-09-01T08:58:14;10.27;;;4.90;;
39896;SDS011;25567;48.276;14.242;2022-09-01T09:00:45;14.07;;;5.45;;
39896;SDS011;25567;48.276;14.242;2022-09-01T09:03:30;12.10;;;4.15;;
39896;SDS011;25567;48.276;14.242;2022-09-01T09:14:14;4.43;;;2.03;;
39896;SDS011;25567;48.276;14.242;2022-09-01T09:16:53;3.28;;;1.92;;
39896;SDS011;25567;48.276;14.242;2022-09-01T09:19:23;2.78;;;1.48;;
39896;SDS011;25567;48.276;14.242;2022-09-01T09:21:51;4.45;;;1.73;;
39896;SDS011;25567;48.276;14.242;2022-09-01T09:27:20;3.85;;;2.30;;
39896;SDS011;25567;48.276;14.242;2022-09-01T09:29:49;4.80;;;2.28;;
39896;SDS011;25567;48.276;14.242;2022-09-01T09:32:18;4.35;;;2.30;;
39896;SDS011;25567;48.276;14.242;2022-09-01T09:34:53;4.68;;;2.38;;
39896;SDS011;25567;48.276;14.242;2022-09-01T09:37:24;5.13;;;2.40;;
39896;SDS011;25567;48.276;14.242;2022-09-01T09:40:01;4.80;;;2.10;;
39896;SDS011;25567;48.276;14.242;2022-09-01T09:45:32;5.13;;;2.47;;
39896;SDS011;25567;48.276;14.242;2022-09-01T09:48:00;7.03;;;2.60;;
39896;SDS011;25567;48.276;14.242;2022-09-01T09:50:38;9.50;;;2.97;;
39896;SDS011;25567;48.276;14.242;2022-09-01T09:55:56;9.88;;;3.30;;
39896;SDS011;25567;48.276;14.242;2022-09-01T09:58:28;6.93;;;2.85;;
39896;SDS011;25567;48.276;14.242;2022-09-01T10:03:41;4.80;;;2.20;;
39896;SDS011;25567;48.276;14.242;2022-09-01T10:06:33;3.33;;;1.98;;
39896;SDS011;25567;48.276;14.242;2022-09-01T10:09:04;6.28;;;2.20;;
39896;SDS011;25567;48.276;14.242;2022-09-01T10:11:42;3.08;;;1.70;;
39896;SDS011;25567;48.276;14.242;2022-09-01T10:17:10;9.18;;;2.33;;
39896;SDS011;25567;48.276;14.242;2022-09-01T10:19:56;6.28;;;2.70;;
39896;SDS011;25567;48.276;14.242;2022-09-01T10:22:31;4.68;;;2.38;;
39896;SDS011;25567;48.276;14.242;2022-09-01T10:24:59;5.60;;;2.63;;
39896;SDS011;25567;48.276;14.242;2022-09-01T10:27:28;3.67;;;2.03;;
39896;SDS011;25567;48.276;14.242;2022-09-01T10:32:48;2.80;;;1.60;;
39896;SDS011;25567;48.276;14.242;2022-09-01T10:37:52;5.55;;;2.10;;
39896;SDS011;25567;48.276;14.242;2022-09-01T10:42:59;3.60;;;1.80;;
39896;SDS011;25567;48.276;14.242;2022-09-01T10:48:52;4.68;;;2.17;;
39896;SDS011;25567;48.276;14.242;2022-09-01T10:56:56;4.50;;;1.63;;
39896;SDS011;25567;48.276;14.242;2022-09-01T10:59:34;7.72;;;1.92;;
39896;SDS011;25567;48.276;14.242;2022-09-01T11:02:12;3.83;;;1.45;;
39896;SDS011;25567;48.276;14.242;2022-09-01T11:27:55;3.38;;;1.95;;
39896;SDS011;25567;48.276;14.242;2022-09-01T11:30:31;3.53;;;2.00;;
39896;SDS011;25567;48.276;14.242;2022-09-01T11:33:10;6.05;;;2.00;;
39896;SDS011;25567;48.276;14.242;2022-09-01T11:35:55;6.13;;;2.30;;
39896;SDS011;25567;48.276;14.242;2022-09-01T11:38:25;4.75;;;2.03;;
39896;SDS011;25567;48.276;14.242;2022-09-01T11:40:54;4.43;;;2.30;;
39896;SDS011;25567;48.276;14.242;2022-09-01T11:43:22;7.18;;;2.42;;
39896;SDS011;25567;48.276;14.242;2022-09-01T11:48:21;5.60;;;2.00;;
39896;SDS011;25567;48.276;14.242;2022-09-01T11:50:58;3.92;;;2.20;;
39896;SDS011;25567;48.276;14.242;2022-09-01T11:55:54;3.55;;;2.05;;
39896;SDS011;25567;48.276;14.242;2022-09-01T11:58:30;3.38;;;2.08;;
39896;SDS011;25567;48.276;14.242;2022-09-01T12:03:47;3.65;;;1.80;;
39896;SDS011;25567;48.276;14.242;2022-09-01T12:06:18;3.90;;;1.80;;
39896;SDS011;25567;48.276;14.242;2022-09-01T12:08:50;6.38;;;1.92;;
39896;SDS011;25567;48.276;14.242;2022-09-01T12:11:22;4.97;;;1.95;;
39896;SDS011;25567;48.276;14.242;2022-09-01T12:16:24;5.78;;;2.30;;
39896;SDS011;25567;48.276;14.242;2022-09-01T12:18:52;2.28;;;1.65;;
39896;SDS011;25567;48.276;14.242;2022-09-01T12:21:25;3.10;;;1.77;;
39896;SDS011;25567;48.276;14.242;2022-09-01T12:26:47;3.38;;;2.10;;
39896;SDS011;25567;48.276;14.242;2022-09-01T12:29:19;3.53;;;1.85;;
39896;SDS011;25567;48.276;14.242;2022-09-01T12:31:47;6.03;;;2.25;;
39896;SDS011;25567;48.276;14.242;2022-09-01T12:34:27;4.45;;;1.98;;
39896;SDS011;25567;48.276;14.242;2022-09-01T12:37:06;8.23;;;2.15;;
39896;SDS011;25567;48.276;14.242;2022-09-01T12:39:45;2.80;;;1.70;;
39896;SDS011;25567;48.276;14.242;2022-09-01T12:42:23;3.45;;;2.05;;
39896;SDS011;25567;48.276;14.242;2022-09-01T12:44:55;5.50;;;2.10;;
39896;SDS011;25567;48.276;14.242;2022-09-01T12:47:57;4.70;;;2.15;;
39896;SDS011;25567;48.276;14.242;2022-09-01T12:52:50;3.97;;;2.30;;
39896;SDS011;25567;48.276;14.242;2022-09-01T12:58:09;10.85;;;2.38;;
39896;SDS011;25567;48.276;14.242;2022-09-01T13:03:22;16.23;;;3.13;;
39896;SDS011;25567;48.276;14.242;2022-09-01T13:05:50;6.25;;;1.77;;
39896;SDS011;25567;48.276;14.242;2022-09-01T13:08:19;5.60;;;1.90;;
39896;SDS011;25567;48.276;14.242;2022-09-01T13:10:49;3.53;;;1.95;;
39896;SDS011;25567;48.276;14.242;2022-09-01T13:13:22;5.25;;;1.63;;
39896;SDS011;25567;48.276;14.242;2022-09-01T13:15:52;5.28;;;1.83;;
39896;SDS011;25567;48.276;14.242;2022-09-01T13:18:21;5.07;;;1.92;;
39896;SDS011;25567;48.276;14.242;2022-09-01T13:20:50;3.30;;;1.85;;
39896;SDS011;25567;48.276;14.242;2022-09-01T13:23:18;3.50;;;1.63;;
39896;SDS011;25567;48.276;14.242;2022-09-01T13:25:46;3.10;;;2.05;;
39896;SDS011;25567;48.276;14.242;2022-09-01T13:28:13;7.20;;;1.90;;
39896;SDS011;25567;48.276;14.242;2022-09-01T13:30:42;5.28;;;2.03;;
39896;SDS011;25567;48.276;14.242;2022-09-01T13:33:16;6.00;;;2.03;;
39896;SDS011;25567;48.276;14.242;2022-09-01T13:35:45;6.38;;;1.75;;
39896;SDS011;25567;48.276;14.242;2022-09-01T13:38:13;2.30;;;1.55;;
39896;SDS011;25567;48.276;14.242;2022-09-01T13:40:42;6.13;;;1.73;;
39896;SDS011;25567;48.276;14.242;2022-09-01T13:43:12;4.82;;;1.85;;
39896;SDS011;25567;48.276;14.242;2022-09-01T13:45:41;2.10;;;1.65;;
39896;SDS011;25567;48.276;14.242;2022-09-01T13:48:10;5.85;;;1.80;;
39896;SDS011;25567;48.276;14.242;2022-09-01T13:50:42;3.20;;;1.50;;
39896;SDS011;25567;48.276;14.242;2022-09-01T13:53:38;4.03;;;1.53;;
39896;SDS011;25567;48.276;14.242;2022-09-01T13:56:04;2.30;;;1.23;;
39896;SDS011;25567;48.276;14.242;2022-09-01T13:58:31;2.70;;;1.83;;
39896;SDS011;25567;48.276;14.242;2022-09-01T14:00:58;7.10;;;1.70;;
39896;SDS011;25567;48.276;14.242;2022-09-01T14:03:25;7.03;;;1.50;;
39896;SDS011;25567;48.276;14.242;2022-09-01T14:05:53;1.77;;;1.38;;
39896;SDS011;25567;48.276;14.242;2022-09-01T14:08:20;5.55;;;1.40;;
39896;SDS011;25567;48.276;14.242;2022-09-01T14:10:49;3.20;;;1.20;;
39896;SDS011;25567;48.276;14.242;2022-09-01T14:13:18;1.95;;;1.25;;
39896;SDS011;25567;48.276;14.242;2022-09-01T14:15:46;2.75;;;1.67;;
39896;SDS011;25567;48.276;14.242;2022-09-01T14:18:15;2.85;;;1.10;;
39896;SDS011;25567;48.276;14.242;2022-09-01T14:20:44;4.43;;;1.20;;
39896;SDS011;25567;48.276;14.242;2022-09-01T14:23:13;3.17;;;1.20;;
39896;SDS011;25567;48.276;14.242;2022-09-01T14:25:42;1.85;;;1.30;;
39896;SDS011;25567;48.276;14.242;2022-09-01T14:28:12;2.85;;;1.33;;
39896;SDS011;25567;48.276;14.242;2022-09-01T14:30:41;2.80;;;1.20;;
39896;SDS011;25567;48.276;14.242;2022-09-01T14:33:08;3.42;;;1.38;;
39896;SDS011;25567;48.276;14.242;2022-09-01T14:35:37;4.53;;;1.50;;
39896;SDS011;25567;48.276;14.242;2022-09-01T14:38:05;13.02;;;1.67;;
39896;SDS011;25567;48.276;14.242;2022-09-01T14:40:34;2.28;;;1.20;;
39896;SDS011;25567;48.276;14.242;2022-09-01T14:43:04;4.10;;;1.30;;
39896;SDS011;25567;48.276;14.242;2022-09-01T14:45:35;5.88;;;1.70;;
39896;SDS011;25567;48.276;14.242;2022-09-01T14:48:03;5.38;;;1.48;;
39896;SDS011;25567;48.276;14.242;2022-09-01T14:50:31;4.53;;;1.40;;
39896;SDS011;25567;48.276;14.242;2022-09-01T14:53:00;4.70;;;1.38;;
39896;SDS011;25567;48.276;14.242;2022-09-01T14:55:28;2.58;;;1.27;;
39896;SDS011;25567;48.276;14.242;2022-09-01T14:57:56;4.10;;;1.35;;
39896;SDS011;25567;48.276;14.242;2022-09-01T15:00:25;3.55;;;1.38;;
39896;SDS011;25567;48.276;14.242;2022-09-01T15:02:53;2.38;;;1.08;;
39896;SDS011;25567;48.276;14.242;2022-09-01T15:05:20;3.83;;;1.70;;
39896;SDS011;25567;48.276;14.242;2022-09-01T15:07:48;2.47;;;1.02;;
39896;SDS011;25567;48.276;14.242;2022-09-01T15:10:16;4.60;;;1.80;;
39896;SDS011;25567;48.276;14.242;2022-09-01T15:12:51;1.77;;;1.10;;
39896;SDS011;25567;48.276;14.242;2022-09-01T15:15:23;1.88;;;1.33;;
39896;SDS011;25567;48.276;14.242;2022-09-01T15:17:50;2.20;;;0.95;;
39896;SDS011;25567;48.276;14.242;2022-09-01T15:20:18;8.30;;;1.77;;
39896;SDS011;25567;48.276;14.242;2022-09-01T15:23:00;3.22;;;1.33;;
39896;SDS011;25567;48.276;14.242;2022-09-01T15:25:27;2.95;;;1.00;;
39896;SDS011;25567;48.276;14.242;2022-09-01T15:27:54;3.17;;;1.55;;
39896;SDS011;25567;48.276;14.242;2022-09-01T15:30:21;6.50;;;1.60;;
39896;SDS011;25567;48.276;14.242;2022-09-01T15:32:50;5.30;;;1.58;;
39896;SDS011;25567;48.276;14.242;2022-09-01T15:35:18;1.92;;;1.10;;
39896;SDS011;25567;48.276;14.242;2022-09-01T15:37:47;3.33;;;1.20;;
39896;SDS011;25567;48.276;14.242;2022-09-01T15:40:15;4.18;;;1.50;;
39896;SDS011;25567;48.276;14.242;2022-09-01T15:42:43;3.65;;;1.20;;
39896;SDS011;25567;48.276;14.242;2022-09-01T15:45:11;2.25;;;1.25;;
39896;SDS011;25567;48.276;14.242;2022-09-01T15:47:40;2.65;;;1.23;;
39896;SDS011;25567;48.276;14.242;2022-09-01T15:50:11;4.22;;;1.08;;
39896;SDS011;25567;48.276;14.242;2022-09-01T15:52:48;1.20;;;0.93;;
39896;SDS011;25567;48.276;14.242;2022-09-01T15:55:18;2.20;;;1.30;;
39896;SDS011;25567;48.276;14.242;2022-09-01T15:57:47;5.40;;;1.20;;
39896;SDS011;25567;48.276;14.242;2022-09-01T16:00:14;2.17;;;1.23;;
39896;SDS011;25567;48.276;14.242;2022-09-01T16:02:42;4.68;;;1.45;;
39896;SDS011;25567;48.276;14.242;2022-09-01T16:05:10;4.07;;;1.40;;
39896;SDS011;25567;48.276;14.242;2022-09-01T16:07:37;6.20;;;1.30;;
39896;SDS011;25567;48.276;14.242;2022-09-01T16:10:05;2.10;;;1.25;;
39896;SDS011;25567;48.276;14.242;2022-09-01T16:12:39;3.97;;;1.33;;
39896;SDS011;25567;48.276;14.242;2022-09-01T16:15:10;2.38;;;1.20;;
39896;SDS011;25567;48.276;14.242;2022-09-01T16:17:51;1.75;;;1.00;;
39896;SDS011;25567;48.276;14.242;2022-09-01T16:20:33;3.03;;;1.40;;
39896;SDS011;25567;48.276;14.242;2022-09-01T16:25:47;3.60;;;1.27;;